Time;durP1;ratioP1;P1;durP2;ratioP2;P2;SDS_P1;SDS_P2;PMS_P1;PMS_P2;Temp;Humidity;BMP_temperature;BMP_pressure;BME280_temperature;BME280_humidity;BME280_pressure;Samples;Min_cycle;Max_cycle;Signal;HPM_P1;HPM_P2
2021/08/24 00:00:24;;;;;;;19.62;11.05;;;;;;;15.31;76.40;101031.42;1793447;79;21243;-58
2021/08/24 00:03:30;;;;;;;16.35;11.12;;;;;;;15.29;76.57;101026.10;1780200;80;21335;-58
2021/08/24 00:06:37;;;;;;;16.97;10.40;;;;;;;15.31;76.68;101027.29;1765742;81;21730;-58
2021/08/24 00:09:45;;;;;;;19.40;10.50;;;;;;;15.30;76.74;101033.31;1776352;79;21224;-58
2021/08/24 00:12:53;;;;;;;14.55;10.15;;;;;;;15.28;76.75;101026.30;1787762;79;21805;-58
2021/08/24 00:15:58;;;;;;;18.50;11.08;;;;;;;15.24;76.86;101020.30;1788197;79;21192;-58
2021/08/24 00:19:04;;;;;;;18.07;11.12;;;;;;;15.23;77.04;101026.00;1811123;78;21204;-57
2021/08/24 00:22:09;;;;;;;23.18;10.58;;;;;;;15.22;77.42;101026.55;1768043;81;21217;-56
2021/08/24 00:25:18;;;;;;;19.40;11.12;;;;;;;15.23;77.71;101022.73;1768035;80;21840;-58
2021/08/24 00:28:24;;;;;;;27.27;12.50;;;;;;;15.21;77.79;101019.30;1768161;80;21300;-57
2021/08/24 00:31:30;;;;;;;27.50;12.10;;;;;;;15.21;77.87;101025.33;1768032;80;21331;-57
2021/08/24 00:34:35;;;;;;;24.32;13.08;;;;;;;15.18;77.68;101022.44;1768522;80;21351;-57
2021/08/24 00:37:41;;;;;;;23.75;11.88;;;;;;;15.17;77.56;101019.36;1768400;80;21339;-56
2021/08/24 00:40:47;;;;;;;32.17;14.65;;;;;;;15.18;77.53;101019.69;1768124;80;21316;-57
2021/08/24 00:43:55;;;;;;;26.65;13.83;;;;;;;15.19;77.31;101014.48;1768071;80;21418;-57
2021/08/24 00:47:02;;;;;;;23.70;11.97;;;;;;;15.16;77.05;101012.11;1767877;80;21348;-58
2021/08/24 00:50:11;;;;;;;25.35;13.40;;;;;;;15.12;76.99;101013.55;1768137;80;21831;-58
2021/08/24 00:53:19;;;;;;;21.80;12.03;;;;;;;15.11;77.09;101011.82;1774448;79;21750;-58
2021/08/24 00:56:27;;;;;;;19.40;11.05;;;;;;;15.12;77.28;101009.41;1768850;80;21355;-57
2021/08/24 00:59:34;;;;;;;29.05;11.65;;;;;;;15.12;77.27;101010.80;1768523;79;21335;-57
2021/08/24 01:02:39;;;;;;;20.57;11.78;;;;;;;15.10;77.22;101015.64;1769541;80;21406;-57
2021/08/24 01:05:45;;;;;;;22.45;11.90;;;;;;;15.08;77.21;101012.20;1767169;81;21726;-57
2021/08/24 01:09:16;;;;;;;18.77;11.22;;;;;;;15.06;77.38;101010.19;1805548;78;21665;-58
2021/08/24 01:12:55;;;;;;;22.10;12.53;;;;;;;15.08;77.14;101012.75;1767312;80;21194;-57
2021/08/24 01:16:12;;;;;;;21.10;11.57;;;;;;;15.04;76.85;101015.02;1770467;80;21198;-58
2021/08/24 01:19:44;;;;;;;19.12;11.85;;;;;;;15.01;76.71;101016.23;1803998;78;21228;-56
2021/08/24 01:23:05;;;;;;;18.30;12.28;;;;;;;14.98;76.66;101018.55;1805203;79;21594;-57
2021/08/24 01:26:23;;;;;;;21.50;12.07;;;;;;;14.91;76.78;101016.19;1805669;79;21281;-58
2021/08/24 01:30:03;;;;;;;19.37;11.70;;;;;;;14.87;76.99;101014.88;1804514;78;21386;-58
2021/08/24 01:33:25;;;;;;;19.87;10.70;;;;;;;14.85;77.15;101021.08;1768958;80;21233;-58
2021/08/24 01:36:43;;;;;;;22.82;11.43;;;;;;;14.83;77.50;101013.52;1805597;79;21348;-58
2021/08/24 01:39:52;;;;;;;20.75;11.80;;;;;;;14.81;77.86;101022.48;1765698;80;21288;-58
2021/08/24 01:42:57;;;;;;;25.02;10.45;;;;;;;14.83;78.26;101019.03;1768538;80;21197;-58
2021/08/24 01:46:09;;;;;;;27.17;12.10;;;;;;;14.84;78.30;101020.77;1768808;80;21837;-58
2021/08/24 01:49:16;;;;;;;17.27;10.55;;;;;;;14.87;78.40;101023.14;1766893;80;21351;-57
2021/08/24 01:52:25;;;;;;;22.27;11.12;;;;;;;14.89;78.29;101016.38;1769859;80;21205;-60
2021/08/24 01:55:35;;;;;;;17.80;11.10;;;;;;;14.92;78.12;101014.62;1787586;79;21366;-57
2021/08/24 01:58:52;;;;;;;19.55;10.38;;;;;;;14.93;77.95;101014.11;1770003;79;21327;-57
2021/08/24 02:02:13;;;;;;;20.45;10.72;;;;;;;14.91;77.75;101016.19;1767081;78;21174;-56
2021/08/24 02:05:39;;;;;;;15.28;9.93;;;;;;;14.85;77.46;101012.30;1801018;78;21852;-57
2021/08/24 02:08:48;;;;;;;22.45;11.00;;;;;;;14.80;77.27;101017.52;1737871;81;21347;-57
2021/08/24 02:11:54;;;;;;;17.55;10.53;;;;;;;14.73;77.07;101018.46;1737966;82;21403;-57
2021/08/24 02:15:00;;;;;;;16.97;9.85;;;;;;;14.69;77.39;101023.48;1756786;80;21220;-58
2021/08/24 02:18:06;;;;;;;17.73;11.12;;;;;;;14.69;77.47;101019.35;1767383;80;21212;-57
2021/08/24 02:21:18;;;;;;;18.37;10.90;;;;;;;14.65;77.47;101015.78;1775109;80;21240;-57
2021/08/24 02:24:30;;;;;;;20.15;11.73;;;;;;;14.64;77.54;101013.54;1778105;78;21407;-58
2021/08/24 02:27:39;;;;;;;16.90;10.65;;;;;;;14.67;77.59;101015.92;1735780;82;21189;-58
2021/08/24 02:30:49;;;;;;;14.35;10.60;;;;;;;14.65;77.38;101014.41;1718301;82;21371;-58
2021/08/24 02:34:11;;;;;;;22.15;11.68;;;;;;;14.54;77.39;101015.69;1735464;81;21347;-57
2021/08/24 02:37:24;;;;;;;23.30;11.05;;;;;;;14.43;77.92;101015.30;1739295;82;21871;-57
2021/08/24 02:40:38;;;;;;;24.82;11.45;;;;;;;14.43;78.45;101005.66;1802762;78;22235;-57
2021/08/24 02:44:02;;;;;;;17.05;11.38;;;;;;;14.44;78.44;101014.25;1761912;79;21239;-57
2021/08/24 02:47:08;;;;;;;16.05;10.60;;;;;;;14.40;78.44;101006.00;1783320;79;21158;-59
2021/08/24 02:50:15;;;;;;;22.48;10.82;;;;;;;14.36;78.88;101011.55;1738349;81;21565;-57
2021/08/24 02:53:23;;;;;;;21.25;10.60;;;;;;;14.39;79.09;101013.94;1719686;81;21182;-57
2021/08/24 02:56:29;;;;;;;23.57;11.35;;;;;;;14.45;79.04;101011.81;1801112;79;21375;-58
2021/08/24 02:59:38;;;;;;;21.93;12.28;;;;;;;14.49;79.04;101014.00;1767537;80;21355;-57
2021/08/24 03:02:43;;;;;;;27.13;14.35;;;;;;;14.52;78.92;101015.55;1767184;80;21331;-57
2021/08/24 03:05:49;;;;;;;28.57;13.50;;;;;;;14.50;78.65;101010.73;1768422;80;21378;-58
2021/08/24 03:08:55;;;;;;;28.30;14.03;;;;;;;14.48;78.69;101019.70;1769819;80;21960;-58
2021/08/24 03:12:11;;;;;;;31.05;14.00;;;;;;;14.45;78.53;101020.08;1769511;80;21521;-58
2021/08/24 03:15:28;;;;;;;26.52;14.38;;;;;;;14.43;78.63;101012.55;1730169;80;21217;-57
2021/08/24 03:18:43;;;;;;;26.60;14.30;;;;;;;14.37;78.48;101010.50;1771694;79;21693;-57
2021/08/24 03:21:48;;;;;;;30.05;14.33;;;;;;;14.39;78.83;101011.19;1785398;79;21224;-57
2021/08/24 03:24:54;;;;;;;26.33;14.15;;;;;;;14.45;79.01;101012.68;1774480;79;21425;-56
2021/08/24 03:28:00;;;;;;;23.30;14.18;;;;;;;14.49;78.78;101013.17;1768330;80;21737;-57
2021/08/24 03:31:05;;;;;;;27.02;13.15;;;;;;;14.48;78.62;101010.06;1767641;80;21343;-57
2021/08/24 03:34:12;;;;;;;28.55;13.35;;;;;;;14.46;78.61;101009.41;1768501;80;21352;-57
2021/08/24 03:37:17;;;;;;;24.55;13.30;;;;;;;14.46;78.64;101007.49;1768751;79;21157;-58
2021/08/24 03:40:22;;;;;;;22.82;13.22;;;;;;;14.50;78.55;101002.47;1767567;80;21426;-56
2021/08/24 03:43:28;;;;;;;21.73;13.38;;;;;;;14.54;78.81;101016.23;1769453;79;21181;-56
2021/08/24 03:46:33;;;;;;;27.17;12.35;;;;;;;14.67;78.92;101015.92;1768953;79;21694;-57
2021/08/24 03:49:38;;;;;;;19.82;12.07;;;;;;;14.78;78.46;101011.84;1768739;80;21194;-57
2021/08/24 03:52:43;;;;;;;29.45;14.33;;;;;;;14.83;78.12;101010.76;1767970;80;21169;-57
2021/08/24 03:55:50;;;;;;;22.50;12.35;;;;;;;14.87;77.93;101005.22;1769856;79;21343;-57
2021/08/24 03:58:55;;;;;;;21.87;11.12;;;;;;;14.94;77.60;101013.92;1771363;79;21363;-58
2021/08/24 04:02:00;;;;;;;18.35;11.95;;;;;;;14.99;77.29;101016.11;1769089;80;21344;-58
2021/08/24 04:05:06;;;;;;;21.57;12.23;;;;;;;14.98;76.58;101017.16;1767948;80;21900;-58
2021/08/24 04:08:12;;;;;;;21.35;12.20;;;;;;;15.00;76.62;101012.29;1767408;80;21312;-58
2021/08/24 04:11:18;;;;;;;24.32;12.98;;;;;;;15.06;76.33;101011.56;1761150;79;21197;-58
2021/08/24 04:14:25;;;;;;;26.95;13.25;;;;;;;15.12;76.07;101003.91;1768537;79;21352;-58
2021/08/24 04:17:30;;;;;;;23.80;13.10;;;;;;;15.16;75.97;101001.08;1775800;79;21760;-58
2021/08/24 04:20:36;;;;;;;19.45;11.90;;;;;;;15.26;75.88;100998.03;1767979;80;21920;-57
2021/08/24 04:23:42;;;;;;;20.52;12.10;;;;;;;15.36;75.80;100998.61;1790312;78;21369;-62
2021/08/24 04:26:48;;;;;;;18.60;11.53;;;;;;;15.48;75.76;100997.95;1783327;79;21382;-58
2021/08/24 04:29:54;;;;;;;21.85;11.90;;;;;;;15.57;75.44;101002.31;1767998;79;21430;-57
2021/08/24 04:33:00;;;;;;;24.70;11.75;;;;;;;15.67;75.38;101007.02;1772108;80;21666;-56
2021/08/24 04:36:06;;;;;;;20.97;11.50;;;;;;;15.80;75.44;101005.80;1766978;79;21190;-57
2021/08/24 04:39:12;;;;;;;23.47;13.75;;;;;;;15.93;75.13;101007.34;1767200;79;21407;-57
2021/08/24 04:42:17;;;;;;;18.82;11.22;;;;;;;16.00;74.78;101009.63;1770553;79;21389;-57
2021/08/24 04:45:23;;;;;;;24.45;11.55;;;;;;;16.09;74.66;101002.92;1768335;81;21260;-58
2021/08/24 04:48:30;;;;;;;26.85;12.13;;;;;;;16.25;74.52;101012.89;1770333;80;21367;-58
2021/08/24 04:51:35;;;;;;;26.75;11.90;;;;;;;16.41;74.23;101013.46;1782132;79;21174;-57
2021/08/24 04:54:40;;;;;;;25.52;12.68;;;;;;;16.58;73.97;101009.94;1768150;79;21339;-57
2021/08/24 04:57:45;;;;;;;30.48;10.63;;;;;;;16.75;73.66;101014.63;1766072;80;21316;-57
2021/08/24 05:00:52;;;;;;;23.77;9.93;;;;;;;16.92;73.12;101010.53;1771514;79;21364;-58
2021/08/24 05:04:00;;;;;;;21.33;10.28;;;;;;;17.08;72.63;101016.59;1778046;79;21324;-58
2021/08/24 05:07:05;;;;;;;21.00;10.10;;;;;;;17.24;72.00;101012.12;1760064;81;21265;-59
2021/08/24 05:10:11;;;;;;;20.70;10.15;;;;;;;17.39;71.29;101014.26;1767596;79;21216;-58
2021/08/24 05:13:18;;;;;;;15.58;9.30;;;;;;;17.55;70.48;101013.09;1756912;80;21201;-57
2021/08/24 05:16:23;;;;;;;19.02;9.43;;;;;;;17.68;70.17;101011.22;1769181;79;21352;-58
2021/08/24 05:19:28;;;;;;;19.57;9.65;;;;;;;17.81;69.78;101008.51;1779629;79;21749;-57
2021/08/24 05:22:34;;;;;;;16.48;9.93;;;;;;;17.96;69.36;101012.51;1765775;80;21730;-57
2021/08/24 05:25:40;;;;;;;16.07;10.28;;;;;;;18.10;68.84;101016.16;1769605;79;21336;-56
2021/08/24 05:28:49;;;;;;;22.77;9.45;;;;;;;18.25;68.54;101016.84;1788672;79;21403;-57
2021/08/24 05:31:56;;;;;;;16.52;9.15;;;;;;;18.38;68.21;101012.20;1776159;79;21331;-57
2021/08/24 05:35:02;;;;;;;17.95;8.85;;;;;;;18.53;68.05;101018.42;1768816;79;21758;-57
2021/08/24 05:38:08;;;;;;;12.28;8.05;;;;;;;18.67;67.53;101015.97;1768672;79;21332;-57
2021/08/24 05:41:15;;;;;;;12.18;7.47;;;;;;;18.82;66.67;101011.60;1767755;79;21342;-58
2021/08/24 05:44:22;;;;;;;12.05;7.30;;;;;;;18.95;66.16;101004.11;1766316;81;21253;-58
2021/08/24 05:47:29;;;;;;;12.13;6.92;;;;;;;19.09;65.93;101009.95;1769597;79;21842;-58
2021/08/24 05:50:34;;;;;;;11.30;7.40;;;;;;;19.23;65.36;101006.08;1767188;79;21360;-58
2021/08/24 05:53:41;;;;;;;11.30;7.08;;;;;;;19.36;65.15;101009.95;1779031;79;21407;-56
2021/08/24 05:56:50;;;;;;;13.88;7.15;;;;;;;19.48;64.50;101000.72;1787237;79;21251;-57
2021/08/24 05:59:56;;;;;;;15.05;6.37;;;;;;;19.61;64.11;101003.46;1788474;79;21386;-58
2021/08/24 06:03:03;;;;;;;13.15;6.15;;;;;;;19.74;63.87;101005.33;1788060;79;21201;-57
2021/08/24 06:06:09;;;;;;;7.58;5.20;;;;;;;19.86;63.81;101016.06;1774782;79;21715;-58
2021/08/24 06:09:16;;;;;;;9.80;5.10;;;;;;;19.97;62.51;101008.41;1720772;83;21287;-57
2021/08/24 06:12:23;;;;;;;10.25;5.25;;;;;;;20.11;61.61;101014.22;1720090;83;21220;-58
2021/08/24 06:15:29;;;;;;;6.67;4.55;;;;;;;20.24;60.58;101016.43;1721860;83;21426;-59
2021/08/24 06:18:37;;;;;;;12.98;4.97;;;;;;;20.37;59.82;101009.40;1735877;82;21863;-57
2021/08/24 06:21:43;;;;;;;6.67;4.00;;;;;;;20.52;58.94;101013.23;1735145;82;21216;-58
2021/08/24 06:24:49;;;;;;;6.83;4.10;;;;;;;20.65;58.11;101002.87;1735884;82;21357;-58
2021/08/24 06:27:57;;;;;;;8.05;3.67;;;;;;;20.79;57.30;101007.24;1702799;83;21209;-58
2021/08/24 06:31:03;;;;;;;6.08;3.60;;;;;;;20.92;56.62;101009.05;1701253;84;21606;-57
2021/08/24 06:34:09;;;;;;;5.50;3.70;;;;;;;21.07;55.69;101008.74;1705584;83;21247;-58
2021/08/24 06:37:15;;;;;;;6.60;3.95;;;;;;;21.18;55.67;101003.28;1768201;81;21216;-59
2021/08/24 06:40:21;;;;;;;7.67;3.08;;;;;;;21.31;55.38;101007.30;1773673;79;21374;-59
2021/08/24 06:43:26;;;;;;;8.13;3.20;;;;;;;21.43;53.56;101008.78;1776247;79;21212;-58
2021/08/24 06:46:32;;;;;;;6.70;2.98;;;;;;;21.55;53.26;101017.53;1764876;81;21436;-58
2021/08/24 06:49:37;;;;;;;3.75;2.58;;;;;;;21.66;52.94;101014.53;1774044;79;21350;-59
2021/08/24 06:52:42;;;;;;;5.80;2.80;;;;;;;21.77;51.28;101011.83;1758778;81;21704;-58
2021/08/24 06:55:49;;;;;;;6.05;2.58;;;;;;;21.89;50.26;101018.88;1746210;82;21230;-60
2021/08/24 06:58:54;;;;;;;3.70;2.45;;;;;;;21.98;50.56;101012.74;1747450;81;21209;-57
2021/08/24 07:02:00;;;;;;;5.70;2.58;;;;;;;22.06;49.06;101015.21;1742792;81;21252;-57
2021/08/24 07:05:07;;;;;;;6.47;2.83;;;;;;;22.14;48.33;101020.46;1775570;80;21239;-58
2021/08/24 07:08:15;;;;;;;6.30;3.02;;;;;;;22.24;47.46;101021.30;1744207;79;21469;-58
2021/08/24 07:11:22;;;;;;;4.85;2.67;;;;;;;22.34;47.45;101023.52;1784832;79;21327;-58
2021/08/24 07:14:31;;;;;;;5.03;2.60;;;;;;;22.43;47.54;101020.69;1793156;78;21196;-58
2021/08/24 07:17:39;;;;;;;4.97;2.60;;;;;;;22.52;47.31;101017.36;1768058;81;21907;-59
2021/08/24 07:20:46;;;;;;;4.28;2.67;;;;;;;22.59;46.79;101013.92;1769476;80;21339;-57
2021/08/24 07:23:52;;;;;;;6.97;2.58;;;;;;;22.72;47.04;101011.47;1767666;80;21213;-59
2021/08/24 07:26:58;;;;;;;3.85;2.58;;;;;;;22.82;45.73;101015.89;1769973;79;21818;-59
2021/08/24 07:30:02;;;;;;;4.20;2.45;;;;;;;22.90;45.66;101022.53;1767734;80;21446;-58
2021/08/24 07:33:08;;;;;;;5.30;2.52;;;;;;;22.97;45.49;101022.73;1767976;80;21178;-59
2021/08/24 07:36:14;;;;;;;5.20;2.70;;;;;;;23.07;44.46;101016.55;1767655;80;21323;-58
2021/08/24 07:39:19;;;;;;;7.22;2.22;;;;;;;23.15;43.90;101021.22;1767322;80;21375;-58
2021/08/24 07:42:24;;;;;;;3.50;2.15;;;;;;;23.23;43.26;101011.64;1766251;80;21794;-58
2021/08/24 07:45:30;;;;;;;7.00;2.47;;;;;;;23.32;43.63;101010.21;1767540;80;21430;-60
2021/08/24 07:48:35;;;;;;;3.42;2.37;;;;;;;23.38;42.03;101008.69;1767329;80;21465;-60
2021/08/24 07:51:42;;;;;;;4.08;2.60;;;;;;;23.43;42.41;101017.73;1766913;80;21335;-58
2021/08/24 07:54:48;;;;;;;4.90;2.70;;;;;;;23.47;42.44;101018.39;1764684;79;21966;-58
2021/08/24 07:57:55;;;;;;;5.60;2.62;;;;;;;23.52;41.94;101015.72;1756507;81;21834;-59
2021/08/24 08:01:00;;;;;;;3.72;2.55;;;;;;;23.56;41.41;101011.33;1777095;80;21204;-60
2021/08/24 08:04:08;;;;;;;3.83;2.60;;;;;;;23.66;41.40;101012.66;1808097;79;21197;-59
2021/08/24 08:07:14;;;;;;;4.03;2.45;;;;;;;23.75;41.12;101008.38;1800949;79;21184;-59
2021/08/24 08:10:21;;;;;;;3.60;2.35;;;;;;;23.81;40.67;101004.05;1793449;79;21587;-61
2021/08/24 08:13:28;;;;;;;5.22;2.70;;;;;;;23.88;39.81;100996.92;1761246;80;21423;-59
2021/08/24 08:16:35;;;;;;;4.62;2.62;;;;;;;23.96;40.27;100993.17;1743954;81;21197;-60
2021/08/24 08:19:44;;;;;;;5.33;2.35;;;;;;;24.03;40.49;100989.72;1741388;81;21363;-59
2021/08/24 08:22:49;;;;;;;6.85;2.80;;;;;;;24.11;39.36;100978.14;1736747;82;21248;-59
2021/08/24 08:25:56;;;;;;;4.00;2.50;;;;;;;24.18;39.75;100978.81;1741810;81;21197;-60
2021/08/24 08:29:05;;;;;;;4.22;2.58;;;;;;;24.27;38.81;100975.08;1768697;79;21900;-58
2021/08/24 08:32:12;;;;;;;4.05;2.60;;;;;;;24.34;39.22;100974.39;1736526;81;21327;-59
2021/08/24 08:35:19;;;;;;;4.97;2.65;;;;;;;24.42;39.06;100973.98;1736115;81;21398;-59
2021/08/24 08:38:24;;;;;;;6.03;2.55;;;;;;;24.47;38.47;100970.70;1735251;82;21185;-59
2021/08/24 08:42:04;;;;;;;6.05;2.72;;;;;;;24.52;38.77;100966.60;1734340;82;21180;-60
2021/08/24 08:45:23;;;;;;;4.47;3.00;;;;;;;24.56;38.23;100971.98;1746340;81;21228;-60
2021/08/24 08:48:45;;;;;;;4.28;2.60;;;;;;;24.60;37.40;100964.79;1739117;81;21352;-60
2021/08/24 08:52:01;;;;;;;5.15;2.35;;;;;;;24.65;37.55;100964.88;1738466;82;21185;-60
2021/08/24 08:55:13;;;;;;;7.15;2.80;;;;;;;24.71;37.08;100966.69;1741732;81;21362;-59
2021/08/24 08:58:51;;;;;;;5.78;2.52;;;;;;;24.79;37.52;100963.47;1738770;81;21201;-58
2021/08/24 09:02:26;;;;;;;5.03;2.72;;;;;;;24.86;37.03;100959.10;1736866;82;21343;-60
2021/08/24 09:05:35;;;;;;;4.78;2.47;;;;;;;24.89;36.66;100963.61;1737188;82;21374;-60
2021/08/24 09:08:42;;;;;;;5.22;2.50;;;;;;;24.89;36.32;100953.81;1728849;81;21737;-59
2021/08/24 09:11:53;;;;;;;6.58;2.77;;;;;;;24.92;36.46;100949.13;1764558;80;21350;-59
2021/08/24 09:15:02;;;;;;;5.15;2.35;;;;;;;24.96;36.39;100953.09;1796842;79;21406;-63
2021/08/24 09:18:08;;;;;;;4.45;2.52;;;;;;;25.03;36.83;100953.78;1765568;81;21723;-58
2021/08/24 09:21:14;;;;;;;5.10;2.80;;;;;;;25.12;36.83;100943.54;1763044;80;21328;-58
2021/08/24 09:24:32;;;;;;;4.67;2.65;;;;;;;25.19;37.10;100945.05;1749726;80;21213;-59
2021/08/24 09:28:11;;;;;;;5.42;2.67;;;;;;;25.28;36.88;100945.44;1765856;81;21244;-57
2021/08/24 09:31:21;;;;;;;4.03;2.70;;;;;;;25.32;36.32;100934.02;1765780;80;21313;-58
2021/08/24 09:34:32;;;;;;;5.12;2.65;;;;;;;25.38;36.77;100934.41;1766471;79;21296;-59
2021/08/24 09:37:37;;;;;;;6.67;2.47;;;;;;;25.44;36.42;100941.77;1766713;79;21363;-58
2021/08/24 09:40:50;;;;;;;5.72;2.65;;;;;;;25.50;35.69;100930.95;1756602;81;21367;-57
2021/08/24 09:43:58;;;;;;;4.70;2.90;;;;;;;25.60;36.03;100930.52;1766850;80;21220;-58
2021/08/24 09:47:23;;;;;;;3.98;2.62;;;;;;;25.66;36.29;100932.81;1758762;81;21613;-59
2021/08/24 09:50:28;;;;;;;5.42;2.80;;;;;;;25.73;35.62;100933.48;1768569;79;21909;-58
2021/08/24 09:53:42;;;;;;;4.95;2.60;;;;;;;25.75;34.87;100931.27;1736578;81;21760;-58
2021/08/24 09:56:53;;;;;;;4.85;2.58;;;;;;;25.79;34.75;100927.67;1749019;81;22717;-58
2021/08/24 10:00:16;;;;;;;7.28;3.33;;;;;;;25.85;34.57;100925.75;1764964;81;21340;-59
2021/08/24 10:03:48;;;;;;;6.17;3.45;;;;;;;25.93;35.50;100923.34;1758164;79;21176;-60
2021/08/24 10:07:13;;;;;;;3.80;2.70;;;;;;;26.02;35.42;100918.15;1741963;81;21745;-59
2021/08/24 10:10:41;;;;;;;6.50;3.00;;;;;;;26.10;35.84;100910.08;1747897;80;21237;-60
2021/08/24 10:13:51;;;;;;;6.83;2.90;;;;;;;26.18;34.29;100915.22;1748294;80;21283;-58
2021/08/24 10:17:01;;;;;;;7.10;3.27;;;;;;;26.23;35.22;100913.02;1755333;79;21240;-57
2021/08/24 10:20:06;;;;;;;4.97;3.12;;;;;;;26.28;34.10;100910.27;1742672;81;21187;-57
2021/08/24 10:23:17;;;;;;;5.67;2.90;;;;;;;26.28;33.44;100912.52;1695829;82;21208;-59
2021/08/24 10:26:33;;;;;;;5.15;2.83;;;;;;;26.32;34.41;100912.27;1735298;82;21730;-58
2021/08/24 10:29:43;;;;;;;5.62;2.67;;;;;;;26.37;34.00;100910.06;1737785;82;21732;-57
2021/08/24 10:33:03;;;;;;;5.05;3.00;;;;;;;26.44;34.47;100907.89;1734117;82;21424;-58
2021/08/24 10:36:20;;;;;;;8.10;3.17;;;;;;;26.52;34.22;100903.19;1733645;82;21764;-57
2021/08/24 10:39:37;;;;;;;4.05;3.00;;;;;;;26.61;34.55;100905.79;1734293;82;21397;-58
2021/08/24 10:42:50;;;;;;;7.20;2.83;;;;;;;26.71;34.08;100898.89;1734594;82;21156;-58
2021/08/24 10:46:12;;;;;;;6.50;3.02;;;;;;;26.85;33.98;100900.12;1682503;85;21249;-57
2021/08/24 10:49:18;;;;;;;6.37;3.02;;;;;;;26.98;33.61;100898.80;1735599;82;21219;-58
2021/08/24 10:53:02;;;;;;;6.15;2.92;;;;;;;27.10;33.25;100903.09;1734985;82;21330;-58
2021/08/24 10:56:13;;;;;;;6.83;2.95;;;;;;;27.19;32.91;100904.84;1730081;82;21879;-58
2021/08/24 10:59:53;;;;;;;4.30;3.12;;;;;;;27.23;32.20;100894.18;1744644;81;21231;-58
2021/08/24 11:03:47;;;;;;;5.78;3.08;;;;;;;27.28;32.21;100889.17;1748003;81;21388;-57
2021/08/24 11:07:10;;;;;;;6.37;3.05;;;;;;;27.38;32.35;100885.02;1736021;80;21271;-57
2021/08/24 11:10:38;;;;;;;3.92;2.90;;;;;;;27.54;32.76;100885.38;1746526;81;21309;-57
2021/08/24 11:14:12;;;;;;;7.05;3.40;;;;;;;27.71;32.28;100878.41;1770439;79;21192;-57
2021/08/24 11:17:45;;;;;;;3.77;2.30;;;;;;;27.90;32.29;100877.91;1778776;80;21339;-58
2021/08/24 11:20:59;;;;;;;3.85;2.45;;;;;;;28.03;31.49;100871.20;1746506;82;21255;-58
2021/08/24 11:24:15;;;;;;;6.47;3.45;;;;;;;28.17;31.11;100869.53;1752261;80;21741;-59
2021/08/24 11:27:34;;;;;;;6.12;2.58;;;;;;;28.31;30.71;100861.36;1757442;81;21228;-59
2021/08/24 11:30:50;;;;;;;4.35;2.62;;;;;;;28.44;30.05;100867.85;1756411;80;21340;-59
2021/08/24 11:34:30;;;;;;;6.83;2.50;;;;;;;28.51;30.18;100860.02;1796450;80;21211;-58
2021/08/24 11:37:46;;;;;;;5.55;2.80;;;;;;;28.57;29.87;100851.83;1780812;79;21351;-58
2021/08/24 11:41:06;;;;;;;5.30;2.90;;;;;;;28.58;30.35;100847.88;1768824;79;21241;-57
2021/08/24 11:44:25;;;;;;;4.65;2.95;;;;;;;28.54;29.97;100847.59;1765939;80;21351;-58
2021/08/24 11:47:49;;;;;;;4.65;2.83;;;;;;;28.51;29.96;100841.11;1767499;79;21174;-58
2021/08/24 11:51:17;;;;;;;5.55;3.05;;;;;;;28.56;31.28;100836.89;1741015;82;21191;-59
2021/08/24 11:54:53;;;;;;;7.70;3.00;;;;;;;28.68;30.88;100828.15;1770479;79;22179;-57
2021/08/24 11:58:23;;;;;;;5.17;3.00;;;;;;;28.74;29.83;100835.45;1800131;79;21382;-57
2021/08/24 12:01:32;;;;;;;7.60;2.92;;;;;;;28.63;29.12;100829.00;1768427;79;21335;-57
2021/08/24 12:04:44;;;;;;;11.18;3.10;;;;;;;28.53;29.17;100830.97;1769294;79;21256;-57
2021/08/24 12:07:49;;;;;;;8.60;3.05;;;;;;;28.49;29.89;100827.04;1777654;80;21237;-58
2021/08/24 12:11:13;;;;;;;5.05;3.10;;;;;;;28.50;29.77;100823.94;1773475;80;21717;-57
2021/08/24 12:14:32;;;;;;;6.92;3.10;;;;;;;28.57;30.15;100820.28;1799645;77;21263;-58
2021/08/24 12:17:39;;;;;;;5.12;2.85;;;;;;;28.63;30.28;100817.73;1789030;78;21868;-58
2021/08/24 12:21:02;;;;;;;5.58;2.90;;;;;;;28.63;29.61;100816.87;1786741;78;21365;-57
2021/08/24 12:24:37;;;;;;;5.03;3.10;;;;;;;28.57;29.14;100818.02;1763226;79;21464;-58
2021/08/24 12:27:53;;;;;;;3.67;2.52;;;;;;;28.51;29.64;100812.11;1761085;80;21816;-57
2021/08/24 12:31:10;;;;;;;4.50;2.67;;;;;;;28.48;29.00;100811.28;1790501;80;21207;-57
2021/08/24 12:34:41;;;;;;;6.40;2.75;;;;;;;28.47;28.92;100807.57;1806941;78;21224;-57
2021/08/24 12:37:58;;;;;;;5.22;2.67;;;;;;;28.43;29.64;100807.02;1787623;78;21334;-58
2021/08/24 12:41:04;;;;;;;5.80;2.77;;;;;;;28.33;30.31;100801.38;1779774;80;21700;-57
2021/08/24 12:44:25;;;;;;;5.22;3.05;;;;;;;28.24;29.97;100797.45;1786389;79;21852;-57
2021/08/24 12:47:35;;;;;;;6.50;2.65;;;;;;;28.14;31.02;100796.02;1786584;80;21314;-57
2021/08/24 12:50:46;;;;;;;5.70;2.87;;;;;;;28.14;30.33;100794.06;1786666;80;21193;-58
2021/08/24 12:53:57;;;;;;;4.05;2.62;;;;;;;28.18;29.54;100797.17;1778828;79;21738;-58
2021/08/24 12:57:30;;;;;;;5.72;3.10;;;;;;;28.24;30.11;100796.03;1759149;79;21189;-58
2021/08/24 13:00:43;;;;;;;4.87;3.02;;;;;;;28.27;30.33;100798.28;1770363;80;21315;-58
2021/08/24 13:04:22;;;;;;;6.28;2.87;;;;;;;28.30;29.79;100788.72;1781907;80;21478;-59
2021/08/24 13:07:53;;;;;;;5.03;2.92;;;;;;;28.31;29.78;100788.13;1788890;80;21240;-58
2021/08/24 13:11:05;;;;;;;8.15;2.67;;;;;;;28.25;30.40;100785.90;1783480;80;21204;-58
2021/08/24 13:14:14;;;;;;;5.90;3.20;;;;;;;28.21;30.62;100787.57;1769105;79;21403;-59
2021/08/24 13:17:23;;;;;;;3.58;2.47;;;;;;;28.18;30.31;100787.31;1674000;85;21183;-58
2021/08/24 13:20:41;;;;;;;6.67;3.25;;;;;;;28.19;29.10;100781.95;1697376;84;21926;-58
2021/08/24 13:23:50;;;;;;;8.15;3.20;;;;;;;28.20;29.17;100780.81;1676583;84;21240;-58
2021/08/24 13:27:01;;;;;;;4.30;2.90;;;;;;;28.17;30.00;100781.38;1692693;83;21177;-58
2021/08/24 13:30:10;;;;;;;4.55;2.98;;;;;;;28.14;29.15;100777.17;1694763;84;22063;-59
2021/08/24 13:33:28;;;;;;;5.12;3.27;;;;;;;28.01;28.63;100772.64;1713127;82;21729;-58
2021/08/24 13:36:45;;;;;;;5.58;3.10;;;;;;;27.91;28.73;100772.66;1677578;85;21366;-58
2021/08/24 13:40:06;;;;;;;5.03;3.27;;;;;;;27.87;29.67;100768.11;1707106;82;21365;-58
2021/08/24 13:43:12;;;;;;;4.85;3.02;;;;;;;27.89;29.97;100756.61;1714989;82;21196;-58
2021/08/24 13:46:19;;;;;;;5.65;2.70;;;;;;;27.90;30.50;100768.14;1707305;84;21205;-57
2021/08/24 13:49:26;;;;;;;4.58;2.70;;;;;;;27.85;29.71;100757.14;1705616;82;21208;-57
2021/08/24 13:52:46;;;;;;;6.92;3.42;;;;;;;27.88;29.58;100752.08;1713202;83;21211;-58
2021/08/24 13:56:06;;;;;;;3.92;2.70;;;;;;;27.86;29.82;100747.55;1700423;84;21333;-57
2021/08/24 13:59:13;;;;;;;5.67;3.00;;;;;;;27.83;29.62;100740.23;1726813;82;21719;-57
2021/08/24 14:02:19;;;;;;;5.75;2.92;;;;;;;27.74;29.75;100741.37;1746163;82;21413;-58
2021/08/24 14:05:26;;;;;;;7.20;3.40;;;;;;;27.68;29.69;100739.67;1738506;81;21366;-59
2021/08/24 14:08:37;;;;;;;6.05;2.98;;;;;;;27.68;30.36;100740.23;1771277;80;21267;-58
2021/08/24 14:11:43;;;;;;;4.08;2.75;;;;;;;27.70;31.20;100734.59;1776821;80;21745;-59
2021/08/24 14:15:12;;;;;;;5.35;3.20;;;;;;;27.74;30.96;100734.88;1743194;80;21220;-59
2021/08/24 14:18:38;;;;;;;5.12;2.87;;;;;;;27.71;30.99;100734.05;1777558;79;21312;-59
2021/08/24 14:21:45;;;;;;;6.10;2.92;;;;;;;27.74;30.88;100737.70;1777565;80;21840;-59
2021/08/24 14:24:50;;;;;;;3.60;2.42;;;;;;;27.73;31.12;100737.43;1777189;80;21359;-59
2021/08/24 14:27:54;;;;;;;6.03;3.08;;;;;;;27.80;31.48;100733.20;1777465;80;21852;-59
2021/08/24 14:31:01;;;;;;;6.40;2.80;;;;;;;27.83;31.55;100735.45;1776944;80;21354;-59
2021/08/24 14:34:25;;;;;;;9.28;3.20;;;;;;;27.81;31.08;100736.88;1769939;81;21754;-60
2021/08/24 14:37:34;;;;;;;7.72;3.02;;;;;;;27.74;30.94;100730.66;1778531;80;21291;-58
2021/08/24 14:40:40;;;;;;;4.62;2.62;;;;;;;27.66;30.92;100726.44;1777663;80;21858;-58
2021/08/24 14:43:51;;;;;;;4.67;2.85;;;;;;;27.59;30.60;100726.44;1769585;81;21209;-58